Haines Airport Haines US
ICAO: PAHN
IATA:
Category: Medium
Scheduled Services:

Elevation: 15 ft
TransAlt. 18000 ft.

Airport Communications:
ASOS:135.75
ANCHORAGE CNTR:132.3
CTAF:122.9
JUNEAU RDO:122.6
TWEB:24.5

PAHN Zoom In..

If you have problems with the map follow the link
https://www.worldairports.se/pages/airport.php?
ICAO=PAHN

Runways:

(A) RW 08 length 4000 ft width 100 ft
---- / hdg 86

(B) RW 26 length 4000 ft width 100 ft
---- / hdg 266

Location; PAHN
Day. 27 / Time. 04.54 Zulu
* Altimeter: 29.27
* Temperature: 04° c. 39.2°f.
* Wind from: 080° Speed 12 kn with Gusts up to 23 kn.
Dewpoint: 02° c.
Visibility: 10 Statute Miles.
Clouds: Scattered 5000 ft.
Clouds: Scattered 7000 ft.
Clouds: Broken 9000 ft.

PAHN 270454Z AUTO 08012G23KT 10SM SCT050 SCT070 BKN090 04/02 A2927 RMK PK WND 15029/0422 SLP913 P0016 T00440017 TSNO VIA AUTODIAL


Wind From 080°
Speed 12 kn.

 
 
jpsmedia worldairports.se 2020   terms of use